Flight Track Log - Related Links

Times and Time Zones

All times are in EST time to prevent confusion due to time zone crossing. See the N269ML flight status page for this flight to view local times or setup timezone preferences in your user account.

Time Position Orientation Groundspeed Altitude Reporting Facility
EST Latitude Longitude Course Direction KTS MPH feet Rate Location/Type
Wed 07:00:42 PM 31.9108 -99.2589 53° Northeast 175 201 7,400  Level Fort Worth Center
Wed 07:01:44 PM 31.9403 -99.2056 57° Northeast 184 212 9,300 1,839 Climbing Fort Worth Center
Wed 07:02:46 PM 31.9719 -99.1464 58° Northeast 203 234 11,200 1,742 Climbing Fort Worth Center
Wed 07:03:48 PM 32.0072 -99.0903 53° Northeast 212 244 12,900 1,742 Climbing Fort Worth Center
Wed 07:04:00 PM 32.0898 -99.0525 52° Northeast  Level Estimated
Wed 07:04:50 PM 32.0394 -99.0336 56° Northeast 210 242 14,800  Level Fort Worth Center
Wed 07:05:53 PM 32.0794 -98.9639 56° Northeast 214 246 16,800 1,728 Climbing Fort Worth Center
Wed 07:06:55 PM 32.1100 -98.9050 58° Northeast 213 245 18,400 1,065 Climbing Fort Worth Center
Wed 07:07:57 PM 32.1433 -98.8411 58° Northeast 227 261 19,000 290 Climbing Fort Worth Center
Wed 07:08:59 PM 32.1833 -98.7628 59° Northeast 271 312 19,000  Level Fort Worth Center
Wed 07:10:01 PM 32.2344 -98.6856 52° Northeast 293 337 19,000  Level Fort Worth Center
Wed 07:11:03 PM 32.3028 -98.6039 45° Northeast 295 339 19,000  Level Fort Worth Center
Wed 07:12:05 PM 32.3558 -98.5325 49° Northeast 290 334 19,000  Level Fort Worth Center
Wed 07:13:07 PM 32.4103 -98.4633 47° Northeast 287 330 19,000  Level Fort Worth Center
Wed 07:14:09 PM 32.4669 -98.3878 48° Northeast 287 330 19,000  Level Fort Worth Center
Wed 07:15:11 PM 32.5253 -98.3128 47° Northeast 288 331 19,000  Level Fort Worth Center
Wed 07:16:14 PM 32.5781 -98.2414 49° Northeast 287 330 19,000  Level Fort Worth Center
Wed 07:17:16 PM 32.6336 -98.1639 50° Northeast 287 330 19,000  Level Fort Worth Center
Wed 07:18:18 PM 32.6872 -98.0942 48° Northeast 284 327 19,000  Level Fort Worth Center
Wed 07:19:20 PM 32.7389 -98.0217 50° Northeast 286 329 19,000  Level Fort Worth Center
Wed 07:20:22 PM 32.7953 -97.9456 49° Northeast 285 328 19,000  Level Fort Worth Center
Wed 07:21:24 PM 32.8475 -97.8750 49° Northeast 282 325 19,000  Level Fort Worth Center
Wed 07:22:26 PM 32.9022 -97.7981 50° Northeast 283 326 19,000  Level Fort Worth Center
Wed 07:23:29 PM 32.9550 -97.7281 48° Northeast 282 325 19,000  Level Fort Worth Center
Wed 07:24:30 PM 33.0067 -97.6561 49° Northeast 283 326 19,000  Level Fort Worth Center
Wed 07:25:32 PM 33.0636 -97.5778 49° Northeast 289 333 19,000 -144 Level Fort Worth Center
Wed 07:26:35 PM 33.1208 -97.5094 45° Northeast 289 333 18,700 -1,104 Descending Fort Worth Center
Wed 07:27:37 PM 33.1875 -97.4528 35° Northeast 294 338 16,700 -1,887 Descending Fort Worth Center
Wed 07:28:39 PM 33.2414 -97.3692 52° Northeast 293 337 14,800 -1,694 Descending Fort Worth Center
Wed 07:29:41 PM 33.2892 -97.2958 52° Northeast 280 322 13,200 -1,182 Descending Fort Worth Center
Wed 07:30:56 PM 33.3500 -97.2000 53° Northeast 258 297 12,100 -629 Descending Dallas / Fort Worth TRACON
Wed 07:31:45 PM 33.3783 -97.1519 55° Northeast 254 292 11,900 -108 Descending Fort Worth Center
Wed 07:32:47 PM 33.4236 -97.0764 54° Northeast 257 296 11,900 -774 Level Fort Worth Center
Wed 07:33:49 PM 33.4664 -97.0086 53° Northeast 256 295 10,300 -1,887 Descending Fort Worth Center
Wed 07:34:51 PM 33.5086 -96.9397 54° Northeast 257 296 8,000 -2,226 Descending Fort Worth Center
Wed 07:35:53 PM 33.5514 -96.8644 56° Northeast 254 292 5,700 -1,968 Descending Fort Worth Center
Wed 07:36:56 PM 33.5892 -96.8097 50° Northeast 221 254 3,900 -1,536 Descending Fort Worth Center
Wed 07:37:58 PM 33.6233 -96.7622 49° Northeast 180 207 2,500 -774 Descending Fort Worth Center
Wed 07:39:00 PM 33.6478 -96.7194 56° Northeast 160 184 2,300 -339 Descending Fort Worth Center
Wed 07:40:02 PM 33.6686 -96.6833 55° Northeast 127 146 1,800 -387 Descending Fort Worth Center
Wed 07:41:04 PM 33.6864 -96.6636 43° Northeast 117 135 1,500 -290 Descending Fort Worth Center

Login

Don't have an account? Register now (free) for customized features, flight alerts, and more!